Latest Weather Observations for Moss Vale

IDN60801

Issued at 6:05 am EDT Saturday 22 November 2014 (issued every 30 minutes, with the page automatically refreshed every 10 minutes)

About weather observations | Map of weather stations | Latest weather observations for NSW | Other Formats
Station Details ID: 068239 Name: MOSS VALE AWS Lat: -34.53 Lon: 150.42 Height: 678.4 m
Data from the previous 72 hours. | See also: Recent months at Moss Vale
Date/Time
EDT
Temp
°C
App
Temp
°C
Dew
Point
Rel
Hum
%
Delta-T
°C
Wind Press
QNH
hPa
Press
MSL
hPa
Rain
since 9 am
mm
Dir
 
Spd
km/h
Gust
km/h
Spd
kts
Gust
kts
22/06:00am 13.7 12.9 12.8 94 0.5 E 9 13 5 7 1016.4 1014.3 0.0
22/05:30am 13.9 13.4 12.8 93 0.6 E 7 11 4 6 1015.9 1013.9 0.0
22/05:00am 14.6 13.9 13.1 91 0.9 ENE 9 13 5 7 1015.9 1013.9 0.0
22/04:54am 14.9 14.3 13.6 92 0.8 ENE 9 13 5 7 1015.8 1013.8 0.0
22/04:30am 14.9 14.9 13.6 92 0.8 NE 6 9 3 5 1015.8 1013.8 0.0
22/04:00am 14.8 14.3 13.7 93 0.6 ENE 9 11 5 6 1015.5 1013.5 0.0
22/03:30am 14.8 13.9 13.7 93 0.6 ENE 11 13 6 7 1015.3 1013.3 0.0
22/03:02am 14.7 14.5 13.7 94 0.6 E 7 11 4 6 1015.5 1013.5 0.0
22/03:00am 14.7 14.2 13.7 94 0.6 E 9 11 5 6 1015.6 1013.6 0.0
22/02:30am 14.7 14.2 13.7 94 0.6 ESE 9 11 5 6 1015.6 1013.6 0.0
22/02:19am 14.8 13.9 13.7 93 0.6 ESE 11 13 6 7 1015.6 1013.6 0.0
22/02:00am 14.9 14.0 13.8 93 0.6 ESE 11 13 6 7 1015.8 1013.8 0.0
22/01:30am 14.9 14.4 13.8 93 0.6 SE 9 11 5 6 1016.3 1014.2 0.0
22/01:01am 14.8 14.3 13.8 94 0.6 SE 9 11 5 6 1016.4 1014.3 0.0
22/01:00am 14.8 14.3 13.8 94 0.6 SE 9 11 5 6 1016.4 1014.3 0.0
22/12:37am 14.8 13.9 13.8 94 0.6 SE 11 15 6 8 1016.6 1014.6 0.0
22/12:30am 14.8 13.9 13.8 94 0.6 SE 11 15 6 8 1016.7 1014.7 0.0
22/12:21am 14.8 13.9 13.8 94 0.6 SE 11 15 6 8 1016.8 1014.8 0.0
22/12:00am 14.8 13.5 13.8 94 0.6 SE 13 17 7 9 1016.7 1014.7 0.0
 
Date/Time
EDT
Temp
°C
App
Temp
°C
Dew
Point
Rel
Hum
%
Delta-T
°C
Wind Press
QNH
hPa
Press
MSL
hPa
Rain
since 9 am
mm
Dir
 
Spd
km/h
Gust
km/h
Spd
kts
Gust
kts
21/11:55pm 14.9 13.7 13.9 94 0.6 SE 13 17 7 9 1016.7 1014.7 0.0
21/11:45pm 14.7 13.0 13.7 94 0.6 SE 15 20 8 11 1016.8 1014.8 0.0
21/11:30pm 14.8 13.6 14.0 95 0.5 SE 13 17 7 9 1016.7 1014.7 0.0
21/11:00pm 14.8 12.5 14.2 96 0.3 ESE 19 24 10 13 1016.6 1014.6 0.0
21/10:30pm 15.0 13.1 14.2 95 0.5 SE 17 24 9 13 1016.3 1014.2 0.0
21/10:00pm 15.3 12.6 14.5 95 0.5 SE 22 30 12 16 1016.0 1014.0 0.0
21/09:30pm 15.7 13.0 14.7 94 0.6 SE 22 32 12 17 1015.5 1013.5 0.0
21/09:15pm 15.8 13.5 14.7 93 0.7 SE 20 28 11 15 1015.3 1013.3 0.0
21/09:00pm 16.0 13.7 14.7 92 0.8 SE 20 32 11 17 1015.2 1013.2 0.0
21/08:30pm 16.2 13.2 14.9 92 0.8 SSE 24 32 13 17 1014.5 1012.5 0.0
21/08:00pm 16.7 13.4 15.1 90 1.0 SE 26 32 14 17 1013.9 1011.9 0.0
21/07:46pm 17.1 15.0 15.3 89 1.1 SE 20 32 11 17 1013.7 1011.6 0.0
21/07:30pm 17.3 14.7 14.8 85 1.5 SE 22 28 12 15 1013.4 1011.3 0.0
21/07:00pm 18.9 14.9 14.0 73 2.9 SE 28 37 15 20 1012.6 1010.6 0.0
21/06:30pm 21.9 18.7 13.0 57 5.3 SSE 22 32 12 17 1011.6 1009.5 0.0
21/06:27pm 22.7 19.5 12.0 50 6.2 SSE 20 32 11 17 1011.4 1009.4 0.0
21/06:00pm 28.0 24.6 9.3 31 10.7 SW 17 22 9 12 1010.9 1008.8 0.0
21/05:30pm 27.9 23.4 8.7 30 10.8 W 22 33 12 18 1010.8 1008.7 0.0
21/05:00pm 27.9 22.7 8.7 30 10.9 W 26 39 14 21 1010.6 1008.5 0.0
21/04:30pm 29.8 26.2 10.4 30 11.4 W 20 32 11 17 1010.5 1008.4 0.0
21/04:00pm 29.2 23.4 9.3 29 11.4 W 30 43 16 23 1010.3 1008.2 0.0
21/03:32pm 29.7 23.5 9.3 28 11.7 W 32 50 17 27 1010.3 1008.2 0.0
21/03:30pm 29.1 22.3 7.6 26 12.0 W 33 50 18 27 1010.2 1008.1 0.0
21/03:00pm 29.3 22.4 7.2 25 12.3 W 33 56 18 30 1009.7 1007.6 0.0
21/02:44pm 29.6 23.0 8.6 27 11.9 W 33 52 18 28 1010.2 1008.1 0.0
21/02:30pm 29.6 23.6 6.9 24 12.5 W 28 44 15 24 1010.0 1007.9 0.0
21/02:00pm 29.4 24.0 9.5 29 11.5 W 28 46 15 25 1010.2 1008.1 0.0
21/01:30pm 29.3 22.7 7.8 26 12.0 W 32 50 17 27 1010.3 1008.2 0.0
21/01:04pm 29.6 22.9 9.7 29 11.5 W 35 54 19 29 1010.3 1008.2 0.0
21/01:00pm 28.9 21.2 8.6 28 11.5 W 39 54 21 29 1010.4 1008.3 0.0
21/12:38pm 29.2 23.1 6.6 24 12.4 W 28 50 15 27 1010.3 1008.2 0.0
21/12:30pm 29.6 24.1 7.5 25 12.4 W 26 43 14 23 1010.4 1008.3 0.0
21/12:00pm 28.7 21.7 6.7 25 12.1 W 33 54 18 29 1010.4 1008.3 0.0
21/11:51am 29.1 22.8 7.6 26 12.0 W 30 54 16 29 1010.3 1008.2 0.0
21/11:30am 29.1 22.8 7.6 26 12.0 W 30 39 16 21 1010.3 1008.2 0.0
21/11:00am 28.9 23.8 7.5 26 11.9 W 24 37 13 20 1010.4 1008.3 0.0
21/10:30am 28.8 23.1 5.0 22 12.7 WNW 24 35 13 19 1010.2 1008.1 0.0
21/10:00am 28.0 21.8 6.2 25 11.8 W 28 43 15 23 1009.8 1007.7 0.0
21/09:30am 27.9 22.3 5.5 24 12.0 WNW 24 35 13 19 1010.2 1008.1 0.0
21/09:00am 27.4 22.6 5.6 25 11.7 NW 20 30 11 16 1010.1 1008.0 0.0
21/08:30am 26.4 22.2 5.9 27 11.0 NNW 17 20 9 11 1010.1 1008.0 0.0
21/08:00am 25.3 23.5 9.6 37 8.9 N 9 13 5 7 1010.1 1008.0 0.0
21/07:30am 23.5 22.5 8.8 39 8.1 NW 4 7 2 4 1010.0 1007.9 0.0
21/07:00am 21.4 19.2 8.0 42 7.2 N 9 11 5 6 1009.7 1007.6 0.0
21/06:30am 21.1 17.9 7.0 40 7.4 N 13 17 7 9 1009.8 1007.7 0.0
21/06:00am 21.5 17.2 5.4 35 8.3 N 17 20 9 11 1009.6 1007.5 0.0
21/05:30am 21.9 17.1 4.9 33 8.7 N 19 24 10 13 1009.5 1007.4 0.0
21/05:00am 23.8 17.9 3.7 27 10.2 NNW 24 32 13 17 1009.6 1007.5 0.0
21/04:30am 22.1 19.0 7.1 38 8.0 NW 13 17 7 9 1009.7 1007.6 0.0
21/04:00am 21.9 19.8 8.1 41 7.5 WNW 9 17 5 9 1009.5 1007.4 0.0
21/03:30am 22.4 18.1 7.8 39 7.9 WSW 20 35 11 19 1009.5 1007.4 0.0
21/03:00am 23.4 19.2 5.8 32 9.2 NNW 17 22 9 12 1009.0 1006.9 0.0
21/02:30am 23.9 19.0 6.7 33 9.2 N 22 32 12 17 1009.1 1007.0 0.0
21/02:00am 21.7 19.7 11.4 52 5.9 NNW 13 19 7 10 1009.5 1007.4 0.0
21/01:30am 20.6 20.1 12.8 61 4.6 N 7 11 4 6 1009.7 1007.6 0.0
21/01:00am 20.2 20.0 14.6 70 3.4 NNE 9 13 5 7 1009.8 1007.7 0.0
21/12:30am 18.8 19.0 14.7 77 2.5 NNE 7 9 4 5 1010.3 1008.2 0.0
21/12:00am 18.8 18.6 14.7 77 2.5 NE 9 9 5 5 1010.7 1008.6 0.0
 
Date/Time
EDT
Temp
°C
App
Temp
°C
Dew
Point
Rel
Hum
%
Delta-T
°C
Wind Press
QNH
hPa
Press
MSL
hPa
Rain
since 9 am
mm
Dir
 
Spd
km/h
Gust
km/h
Spd
kts
Gust
kts
20/11:30pm 19.0 18.8 14.7 76 2.6 NE 9 9 5 5 1011.2 1009.2 0.0
20/11:00pm 19.4 18.5 14.9 75 2.7 NE 13 17 7 9 1011.7 1009.6 0.0
20/10:30pm 20.0 19.2 15.2 74 2.9 NNE 13 17 7 9 1012.0 1009.9 0.0
20/10:00pm 20.2 18.9 14.8 71 3.3 NE 15 17 8 9 1012.1 1010.0 0.0
20/09:30pm 21.0 19.6 14.6 67 3.9 NNE 15 17 8 9 1012.2 1010.1 0.0
20/09:00pm 21.5 21.5 15.1 67 3.9 ENE 9 13 5 7 1011.9 1009.8 0.0
20/08:30pm 22.2 21.5 14.3 61 4.8 ENE 11 19 6 10 1011.6 1009.5 0.0
20/08:00pm 22.7 21.0 11.1 48 6.7 ENE 11 17 6 9 1011.1 1009.0 0.0
20/07:30pm 27.1 22.7 4.8 24 11.7 NW 17 28 9 15 1010.9 1008.8 0.0
20/07:00pm 27.9 23.9 4.9 23 12.2 WNW 15 22 8 12 1010.6 1008.5 0.0
20/06:30pm 28.7 24.8 5.5 23 12.5 W 15 24 8 13 1010.3 1008.2 0.0
20/06:00pm 28.5 24.2 5.4 23 12.4 W 17 22 9 12 1010.1 1008.0 0.0
20/05:30pm 28.5 24.0 6.0 24 12.2 W 19 24 10 13 1010.1 1008.0 0.0
20/05:00pm 29.2 24.8 6.6 24 12.4 WNW 19 28 10 15 1010.2 1008.1 0.0
20/04:30pm 29.3 25.3 6.7 24 12.4 W 17 28 9 15 1010.4 1008.3 0.0
20/04:00pm 29.2 24.3 3.9 20 13.3 NW 19 22 10 12 1010.7 1008.6 0.0
20/03:30pm 29.9 24.5 4.5 20 13.5 WNW 22 32 12 17 1011.0 1008.9 0.0
20/03:00pm 29.7 24.3 4.4 20 13.4 WNW 22 32 12 17 1011.3 1009.3 0.0
20/02:30pm 29.2 23.2 0.8 16 14.1 W 22 33 12 18 1011.9 1009.8 0.0
20/02:00pm 29.6 23.9 5.0 21 13.2 W 24 33 13 18 1012.3 1010.2 0.0
20/01:30pm 28.3 21.3 3.9 21 12.7 W 30 41 16 22 1012.8 1010.8 0.0
20/01:00pm 28.8 23.8 3.6 20 13.1 W 19 33 10 18 1013.4 1011.3 0.0
20/12:30pm 28.0 23.3 5.0 23 12.2 WNW 19 30 10 16 1013.8 1011.8 0.0
20/12:00pm 27.9 23.8 7.7 28 11.2 WNW 19 24 10 13 1014.2 1012.2 0.0
20/11:30am 26.6 21.9 5.0 25 11.4 WNW 19 26 10 14 1014.6 1012.6 0.0
20/11:00am 26.3 21.6 5.3 26 11.1 NW 19 35 10 19 1015.1 1013.0 0.0
20/10:30am 25.5 21.6 7.1 31 10.0 WNW 17 24 9 13 1015.6 1013.6 0.0
20/10:00am 24.7 21.3 7.8 34 9.2 WNW 15 22 8 12 1015.9 1013.9 0.0
20/09:30am 22.9 20.9 11.6 49 6.5 NW 13 17 7 9 1016.3 1014.2 0.0
20/09:00am 21.6 20.4 11.6 53 5.7 W 9 13 5 7 1016.4 1014.3 0.0
20/08:30am 19.4 19.4 13.6 69 3.4 WSW 6 7 3 4 1016.5 1014.5 0.0
20/08:00am 18.1 19.1 13.2 73 2.9 CALM 0 0 0 0 1016.4 1014.3 0.0
20/07:30am 16.3 17.5 13.8 85 1.5 CALM 0 0 0 0 1016.5 1014.5 0.0
20/07:16am 15.2 16.2 13.2 88 1.1 CALM 0 0 0 0 1016.6 1014.6 0.0
20/07:00am 14.5 15.4 13.0 91 0.9 CALM 0 0 0 0 1016.6 1014.6 0.0
20/06:30am 14.2 14.1 13.4 95 0.5 NNE 6 7 3 4 1016.4 1014.3 0.0
20/06:00am 13.6 13.1 12.7 94 0.5 N 7 11 4 6 1016.4 1014.3 0.0
20/05:30am 13.9 13.7 13.0 94 0.5 NNW 6 9 3 5 1016.4 1014.3 0.0
20/05:07am 14.1 13.7 13.0 93 0.6 NNW 7 13 4 7 1016.3 1014.2 0.0
20/05:00am 14.1 13.9 13.0 93 0.6 NNW 6 9 3 5 1016.4 1014.3 0.0
20/04:30am 14.6 12.9 13.5 93 0.6 N 15 24 8 13 1016.4 1014.3 0.0
20/04:04am 14.5 11.8 13.4 93 0.6 N 20 28 11 15 1016.4 1014.3 0.0
20/04:00am 14.6 11.5 13.5 93 0.6 N 22 28 12 15 1016.4 1014.3 0.0
20/03:30am 14.9 12.4 13.6 92 0.8 N 19 26 10 14 1016.6 1014.6 0.0
20/03:00am 14.9 12.2 13.6 92 0.8 N 20 30 11 16 1016.9 1014.9 0.0
20/02:35am 14.9 12.3 13.8 93 0.6 N 20 28 11 15 1017.2 1015.2 0.0
20/02:30am 14.9 12.3 13.8 93 0.6 N 20 28 11 15 1017.2 1015.2 0.0
20/02:00am 14.7 12.6 13.7 94 0.6 N 17 28 9 15 1017.4 1015.4 0.0
20/01:30am 14.7 13.8 13.7 94 0.6 N 11 19 6 10 1017.4 1015.4 0.0
20/01:00am 14.7 13.0 13.6 93 0.6 N 15 24 8 13 1017.5 1015.5 0.0
20/12:57am 14.8 13.1 13.7 93 0.6 NNE 15 20 8 11 1017.6 1015.6 0.0
20/12:30am 14.9 12.8 13.6 92 0.8 NNE 17 28 9 15 1018.1 1016.1 0.0
20/12:00am 14.9 12.7 13.4 91 0.9 NNE 17 28 9 15 1018.3 1016.3 0.0
 
Date/Time
EDT
Temp
°C
App
Temp
°C
Dew
Point
Rel
Hum
%
Delta-T
°C
Wind Press
QNH
hPa
Press
MSL
hPa
Rain
since 9 am
mm
Dir
 
Spd
km/h
Gust
km/h
Spd
kts
Gust
kts
19/11:30pm 14.8 12.0 13.3 91 0.9 NNE 20 32 11 17 1018.4 1016.4 0.0
19/11:00pm 14.8 11.6 13.2 90 0.9 NNE 22 30 12 16 1018.3 1016.3 0.0
19/10:30pm 15.0 12.2 13.2 89 1.0 NNE 20 28 11 15 1018.6 1016.6 0.0
19/10:00pm 15.1 12.5 13.3 89 1.0 NNE 19 24 10 13 1018.7 1016.7 0.0
19/09:30pm 15.2 11.3 13.2 88 1.1 NNE 26 35 14 19 1018.3 1016.3 0.0
19/09:00pm 15.5 12.0 13.3 87 1.3 NNE 24 33 13 18 1018.0 1016.0 0.0
19/08:30pm 15.7 12.6 13.5 87 1.3 NNE 22 32 12 17 1017.9 1015.9 0.0
19/08:00pm 15.8 13.1 13.5 86 1.3 NNE 20 32 11 17 1017.9 1015.9 0.0
19/07:48pm 16.1 12.7 13.6 85 1.5 NE 24 35 13 19 1017.6 1015.6 0.0
19/07:30pm 16.4 12.2 13.5 83 1.7 NNE 28 39 15 21 1017.4 1015.4 0.0
19/07:00pm 17.2 13.1 13.9 81 1.9 NE 28 37 15 20 1017.3 1015.3 0.0
19/06:30pm 17.7 12.7 14.0 79 2.2 NNE 33 43 18 23 1017.0 1015.0 0.0
19/06:00pm 18.8 14.9 14.3 75 2.7 NE 28 41 15 22 1017.0 1015.0 0.0
19/05:30pm 19.2 14.4 14.0 72 3.1 ENE 32 43 17 23 1016.9 1014.9 0.0
19/05:00pm 20.6 16.3 14.3 67 3.8 NE 30 37 16 20 1017.0 1015.0 0.0
19/04:30pm 21.4 16.7 13.1 59 4.9 NNE 30 37 16 20 1017.3 1015.3 0.0
19/04:00pm 21.8 16.4 12.9 57 5.2 NNE 33 41 18 22 1017.6 1015.6 0.0
19/03:30pm 22.0 16.5 12.3 54 5.7 NNE 33 43 18 23 1018.2 1016.2 0.0
19/03:00pm 21.5 16.7 11.5 53 5.7 NNE 28 39 15 21 1018.6 1016.6 0.0
19/02:30pm 21.1 16.8 10.9 52 5.8 NE 24 32 13 17 1019.2 1017.3 0.0
19/02:00pm 21.2 17.4 11.0 52 5.8 NNE 22 30 12 16 1019.9 1017.9 0.0
19/01:30pm 20.8 18.1 11.7 56 5.2 NE 17 20 9 11 1020.2 1018.2 0.0
19/01:00pm 21.0 18.4 11.9 56 5.2 NNW 17 22 9 12 1020.5 1018.6 0.0
19/12:30pm 20.4 16.8 11.9 58 4.9 NNE 22 33 12 18 1021.1 1019.1 0.0
19/12:00pm 19.6 15.4 12.4 63 4.2 NNE 26 35 14 19 1021.3 1019.3 0.0
19/11:30am 18.6 14.3 11.9 65 3.8 NNE 26 35 14 19 1021.9 1020.0 0.0
19/11:00am 17.8 13.7 11.4 66 3.6 N 24 33 13 18 1022.1 1020.2 0.0
19/10:30am 17.5 13.6 12.2 71 3.0 N 24 35 13 19 1022.4 1020.5 0.0
19/10:00am 16.4 12.7 11.6 73 2.7 NNE 22 30 12 16 1022.7 1020.7 0.0
19/09:30am 15.4 11.1 10.8 74 2.5 NNE 24 28 13 15 1022.7 1020.7 0.0
19/09:00am 15.8 12.8 11.8 77 2.2 NNE 19 28 10 15 1022.6 1020.6 0.0
19/08:30am 14.5 11.3 11.1 80 1.9 NNE 19 26 10 14 1022.4 1020.5 0.0
19/08:00am 14.2 11.6 11.9 86 1.3 NNE 17 20 9 11 1022.6 1020.6 0.0
19/07:30am 13.6 10.8 11.3 86 1.3 NNE 17 22 9 12 1022.3 1020.4 0.0
19/07:00am 13.2 10.9 11.9 92 0.7 NNE 15 19 8 10 1022.1 1020.2 0.0
19/06:30am 12.5 11.2 11.4 93 0.6 NE 9 17 5 9 1022.0 1020.1 0.0

Other Formats:

Comma delimited format used in spreadsheet applications
http://www.bom.gov.au/fwo/IDN60801/IDN60801.94746.axf

JavaScript Object Notation format (JSON) in row-major order
http://www.bom.gov.au/fwo/IDN60801/IDN60801.94746.json